Stunt Ranch Reserve, Santa Monica Mtns, California Weather observations

Data are for 10 minute period ending at time listed.
 Day   Time   Solar   Ave.   Ave.  Ave.  Vector  Max.   Baro.   Total    
  of    of     Rad.   Air    Rel.  Wind   Wind   Wind  Press.  Precip.   
Year   Day            Temp.  Hum.  Speed  Dir.   Gust                    
2017   (PST)  Kw/m2    F      %     mph   deg.    mph    mb.     in.     
-------------------------------------------------------------------------
  50   16:10   0.23   54.2    74    7.5   165    14.2   968.8    0.00 
  50   16:20   0.10   54.0    75    8.2   156    13.9   969.2    0.00 
  50   16:30   0.14   53.7    75    7.2   165    14.5   969.2    0.00 
  50   16:40   0.10   53.9    75    6.2   165    12.7   969.5    0.00 
  50   16:50   0.07   53.4    76    6.0   158    14.6   969.2    0.00 
  50   17:00   0.05   52.7    78    6.2   164    14.0   969.5    0.00 
  50   17:10   0.02   52.4    78    6.3   194    12.3   969.9    0.00 
  50   17:20   0.01   52.6    79    2.9   290     9.3   970.2    0.00 
  50   17:30   0.01   52.3    82    2.0   294     5.6   970.2    0.00 
  50   17:40   0.00   51.7    86    1.1   291     4.6   970.2    0.00 
  50   17:50   0.00   51.1    88    1.3   346     4.0   970.2    0.00 
  50   18:00   0.00   50.7    89    1.6    18     3.9   970.5    0.00 
  50   18:10   0.00   50.4    90    0.8   313     3.1   970.5    0.00 
  50   18:20   0.00   50.3    90    0.5   185     1.5   970.5    0.00 
  50   18:30   0.00   50.3    91    0.4   236     1.7   970.9    0.00 
  50   18:40   0.00   50.3    91    0.7   250     2.4   970.9    0.00 
  50   18:50   0.00   50.2    91    0.5   331     1.8   971.2    0.00 
  50   19:00   0.00   50.2    91    0.4   113     1.5   971.2    0.00 
  50   19:10   0.00   49.9    92    0.8   120     1.7   971.2    0.00 
  50   19:20   0.00   49.9    92    0.5     1     1.7   971.6    0.00 
  50   19:30   0.00   49.9    92    1.4   130     2.1   971.9    0.00 
  50   19:40   0.00   49.7    92    2.2    81     3.5   971.9    0.00 
  50   19:50   0.00   49.5    93    1.3    29     4.2   971.9    0.00 
  50   20:00   0.00   49.5    92    0.7   324     2.3   971.9    0.00 
  50   20:10   0.00   49.6    92    0.7   296     2.3   972.2    0.00 
  50   20:20   0.00   49.7    92    2.0   261     4.7   972.6    0.00 
  50   20:30   0.00   49.7    93    1.4    16     3.0   972.2    0.00 
  50   20:40   0.00   49.4    92    1.4    65     3.9   972.6    0.00 
  50   20:50   0.00   49.5    92    0.9    98     2.4   972.6    0.00 
  50   21:00   0.00   49.5    91    2.2    94     5.7   972.6    0.00 
  50   21:10   0.00   49.6    90    1.9   353     5.3   972.9    0.00 
  50   21:20   0.00   49.8    91    1.3   286     3.7   973.3    0.00 
  50   21:30   0.00   49.8    91    0.3   216     2.2   973.3    0.00 
  50   21:40   0.00   49.8    92    1.6   255     3.5   973.6    0.02 
  50   21:50   0.00   49.8    92    1.0   252     2.9   973.6    0.00 
  50   22:00   0.00   49.8    93    0.8   232     2.1   973.6    0.00 
  50   22:10   0.00   49.7    93    0.4   267     1.8   973.6    0.00 
  50   22:20   0.00   49.8    94    0.8   280     1.8   973.9    0.01 
  50   22:30   0.00   49.8    94    0.2   298     1.2   973.9    0.01 
  50   22:40   0.00   49.6    94    0.6    94     3.7   973.9    0.01 
  50   22:50   0.00   49.4    94    1.1   328     3.1   973.9    0.02 
  50   23:00   0.00   49.3    94    1.5   116     3.9   973.9    0.01 
  50   23:10   0.00   49.4    94    1.3   279     5.8   973.9    0.00 
  50   23:20   0.00   49.5    93    1.8   235     4.8   973.9    0.00 
  50   23:30   0.00   49.7    93    1.0   294     3.2   973.9    0.01 
  50   23:40   0.00   49.8    93    1.7   283     3.6   974.3    0.00 
  50   23:50   0.00   49.7    94    2.1   261     3.7   974.3    0.00 
  51    0:00   0.00   49.7    94    0.4   310     1.2   974.3    0.00 
  51    0:10   0.00   49.5    94    1.5   113     5.6   974.3    0.00 
  51    0:20   0.00   49.5    94    1.8    36     5.7   974.3    0.00 
  51    0:30   0.00   49.5    94    1.2     4     2.9   974.3    0.00 
  51    0:40   0.00   49.7    95    1.0   320     2.5   974.3    0.01 
  51    0:50   0.00   49.5    94    2.1    67     7.2   974.3    0.00 
  51    1:00   0.00   49.3    94    3.5   129     5.7   974.3    0.00 
  51    1:10   0.00   49.5    93    3.0   100     7.7   974.6    0.00 
  51    1:20   0.00   49.6    93    1.1   286     2.6   974.6    0.00 
  51    1:30   0.00   49.8    94    0.5   358     1.8   974.6    0.00 
  51    1:40   0.00   49.6    94    1.3    45     4.2   974.6    0.00 
  51    1:50   0.00   49.4    94    2.8    32     5.1   974.3    0.00 
  51    2:00   0.00   49.2    95    3.1    29     5.3   974.3    0.00 
  51    2:10   0.00   49.2    95    2.1    49     5.4   974.3    0.01 
  51    2:20   0.00   49.3    95    3.2    35     6.1   974.3    0.00 
  51    2:30   0.00   49.4    95    1.9    15     3.7   974.3    0.00 
  51    2:40   0.00   49.6    95    0.9   334     2.4   974.3    0.00 
  51    2:50   0.00   49.5    95    1.1   242     5.8   974.3    0.00 
  51    3:00   0.00   49.5    95    1.5    82     5.0   973.9    0.00 
  51    3:10   0.00   49.6    96    2.7   273     4.1   974.3    0.00 
  51    3:20   0.00   49.5    96    1.3   126     2.3   973.9    0.00 
  51    3:30   0.00   49.6    96    0.8    32     2.5   974.3    0.00 
  51    3:40   0.00   49.5    96    2.2    92     5.8   974.3    0.00 
  51    3:50   0.00   49.4    96    4.6   100     8.4   974.3    0.00 
  51    4:00   0.00   49.4    96    5.0    95     8.3   974.3    0.00 
  51    4:10   0.00   49.5    95    3.0    87     9.9   974.6    0.00 
  51    4:20   0.00   49.5    95    3.3   124     6.9   974.3    0.01 
  51    4:30   0.00   49.4    94    4.1   106     6.9   974.6    0.01 
  51    4:40   0.00   49.4    94    4.3   112     9.3   974.6    0.00 
  51    4:50   0.00   49.5    94    6.4   114    10.2   974.6    0.00 
  51    5:00   0.00   49.6    93    4.2    93     8.6   974.9    0.00 
  51    5:10   0.00   49.4    94    5.1    96     8.9   974.9    0.00 
  51    5:20   0.00   49.4    94    5.3   108    10.1   974.9    0.01 
  51    5:30   0.00   49.4    94    5.2   101    10.7   974.9    0.00 
  51    5:40   0.00   49.4    94    6.4    99    10.4   974.9    0.00 
  51    5:50   0.00   49.5    94    5.8    92    10.4   974.9    0.00 
  51    6:00   0.00   49.3    94    6.8   100    10.6   974.9    0.00 
  51    6:10   0.00   49.3    94    7.1    96    12.4   974.9    0.00 
  51    6:20   0.00   49.3    94    4.8    97     8.7   975.3    0.00 
  51    6:30   0.00   49.3    94    5.2    96     9.3   975.3    0.00 
  51    6:40   0.00   49.3    95    5.7   101     9.3   975.3    0.00 
  51    6:50   0.01   49.3    94    5.4    98     9.2   975.3    0.00 
  51    7:00   0.01   49.4    94    3.6    86    10.2   975.3    0.00 
  51    7:10   0.01   49.4    94    2.9    74     6.3   975.6    0.00 
  51    7:20   0.03   49.7    95    2.4    94     7.7   975.6    0.01 
  51    7:30   0.03   49.7    95    4.1    97     7.6   976.0    0.00 
  51    7:40   0.04   49.9    95    3.3    94     6.9   976.3    0.00 
  51    7:50   0.04   50.2    94    3.4    79     7.9   976.3    0.01 
  51    8:00   0.06   50.3    94    2.9    64     5.7   976.6    0.00 
  51    8:10   0.08   50.5    94    1.3    84     4.3   976.6    0.00 
  51    8:20   0.10   50.8    94    2.9    92     6.4   976.6    0.01 
  51    8:30   0.09   50.8    94    4.2    85    10.4   977.0    0.00 
  51    8:40   0.10   51.1    94    1.8    84     5.8   977.0    0.00 
  51    8:50   0.12   51.3    93    2.9   103     7.0   977.0    0.01 
  51    9:00   0.12   51.5    93    2.5   118     9.1   977.3    0.00 
  51    9:10   0.12   51.5    92    4.4    97    10.1   977.3    0.00 
  51    9:20   0.15   51.4    92    5.7   102    11.2   977.3    0.00 
  51    9:30   0.18   51.8    92    4.8    88     8.8   977.3    0.00 
  51    9:40   0.19   52.4    92    2.6   121    10.0   977.3    0.00 
  51    9:50   0.23   52.6    91    4.7   114    11.9   977.7    0.01 
  51   10:00   0.25   52.6    91    6.2    95    12.9   977.7    0.00 
  51   10:10   0.30   53.2    91    3.5    98     7.9   977.7    0.00 
  51   10:20   0.29   53.2    90    5.7   101    13.2   977.7    0.00 
  51   10:30   0.28   53.5    90    3.7    85     9.1   977.7    0.00 
  51   10:40   0.28   53.3    91    5.3   100    12.4   977.7    0.00 
  51   10:50   0.35   53.0    90    6.9   104    15.0   977.7    0.00 
  51   11:00   0.35   53.7    91    4.7   105     9.6   977.7    0.00 
  51   11:10   0.39   54.2    90    2.7   112     8.6   977.7    0.00 
  51   11:20   0.45   54.3    89    5.1   137    13.9   977.7    0.00 
  51   11:30   0.52   54.3    90    7.6   132    15.1   977.7    0.00 
  51   11:40   0.42   53.7    90   10.2   129    17.3   977.3    0.00 
  51   11:50   0.41   53.6    90    9.1   140    17.8   977.7    0.00 
  51   12:00   0.41   53.7    91    6.9   139    11.9   977.7    0.00 
  51   12:10   0.34   53.4    90    8.3   131    15.3   977.7    0.00 
  51   12:20   0.37   53.9    91    5.3   130    13.4   977.7    0.00 
  51   12:30   0.42   53.7    91    7.5   131    15.3   977.7    0.01 
  51   12:40   0.40   54.1    91    5.7   127    12.1   977.7    0.00 
  51   12:50   0.48   55.8    91    1.5   118     5.6   977.3    0.00 
  51   13:00   0.51   56.1    88    3.5   144     9.4   977.3    0.00 
  51   13:10   0.49   55.8    88    6.0   135    14.7   977.0    0.00 
  51   13:20   0.63   55.3    89    8.2   142    13.4   976.6    0.00 
  51   13:30   0.46   55.0    89    7.3   136    12.4   976.6    0.00 
  51   13:40   0.43   55.1    90    3.9   125    10.3   976.6    0.00 
  51   13:50   0.51   55.7    89    4.7   142    11.3   976.6    0.00 
  51   14:00   0.45   56.4    87    3.8   154     9.1   976.6    0.00 
  51   14:10   0.37   56.3    87    2.5   164     6.5   976.6    0.00 
  51   14:20   0.28   56.2    87    3.6   132     8.7   976.6    0.00 
  51   14:30   0.30   55.2    89    5.9   146    11.9   976.6    0.00 
  51   14:40   0.34   55.0    91    6.6   135    12.1   976.6    0.00 
  51   14:50   0.25   55.1    91    8.2   146    13.4   977.0    0.00 
  51   15:00   0.26   54.2    91    9.7   142    13.6   976.6    0.00 
  51   15:10   0.21   54.4    91    7.8   142    11.8   977.0    0.00 
  51   15:20   0.16   54.4    92    6.0   151    10.5   977.0    0.00 
  51   15:30   0.19   54.7    92    3.3   152     7.3   977.3    0.00 
  51   15:40   0.15   55.0    91    3.6   156     7.2   977.3    0.00 
  51   15:50   0.10   55.1    92    2.5   262     7.3   977.7    0.00 
  51   16:00   0.07   55.1    93    2.0   294     4.9   977.7    0.00 

Return to Stunt Ranch Reserve graphs page.


Western Regional Climate Center,wrcc@dri.edu